createdAt,value
2022-12-03T00:00:17.751Z,0
2022-12-03T00:05:17.931Z,0
2022-12-03T00:10:17.998Z,0
2022-12-03T00:15:17.775Z,0
2022-12-03T00:20:17.827Z,0
2022-12-03T00:25:19.578Z,0
2022-12-03T00:30:17.940Z,0
2022-12-03T00:35:17.867Z,0
2022-12-03T00:40:18.154Z,0
2022-12-03T00:45:17.869Z,0
2022-12-03T00:50:17.923Z,0
2022-12-03T00:55:17.969Z,0
2022-12-03T01:00:18.103Z,0
2022-12-03T01:05:18.124Z,0
2022-12-03T01:10:18.525Z,0
2022-12-03T01:15:17.913Z,0
2022-12-03T01:20:17.936Z,0
2022-12-03T01:25:18.224Z,0
2022-12-03T01:30:18.071Z,0
2022-12-03T01:35:18.085Z,0
2022-12-03T01:40:18.182Z,0
2022-12-03T01:45:18.003Z,0
2022-12-03T01:50:18.279Z,0
2022-12-03T01:55:18.167Z,0
2022-12-03T02:00:18.034Z,0
2022-12-03T02:05:18.037Z,0
2022-12-03T02:10:18.505Z,0
2022-12-03T02:15:18.309Z,0
2022-12-03T02:20:18.064Z,0
2022-12-03T02:25:19.179Z,0
2022-12-03T02:30:18.179Z,0
2022-12-03T02:35:18.095Z,0
2022-12-03T02:40:18.271Z,0
2022-12-03T02:45:18.358Z,0
2022-12-03T02:50:16.351Z,0
2022-12-03T02:55:16.360Z,0
2022-12-03T03:00:16.461Z,0
2022-12-03T03:05:16.159Z,0
2022-12-03T03:10:16.447Z,0
2022-12-03T03:15:16.156Z,0
2022-12-03T03:20:16.551Z,0
2022-12-03T03:25:16.340Z,0
2022-12-03T03:30:16.334Z,0
2022-12-03T03:35:16.253Z,0
2022-12-03T03:40:16.433Z,0
2022-12-03T03:45:16.411Z,0
2022-12-03T03:50:16.376Z,0
2022-12-03T03:55:16.513Z,0
2022-12-03T04:00:16.421Z,0
2022-12-03T04:05:16.406Z,0
2022-12-03T04:10:17.085Z,0
2022-12-03T04:15:16.427Z,0
2022-12-03T04:20:16.429Z,0
2022-12-03T04:25:18.109Z,0
2022-12-03T04:30:16.737Z,0
2022-12-03T04:35:16.531Z,0
2022-12-03T04:40:16.693Z,0
2022-12-03T04:45:16.437Z,0
2022-12-03T04:50:16.539Z,0
2022-12-03T04:55:16.591Z,0
2022-12-03T05:00:17.871Z,0
2022-12-03T05:05:17.456Z,0
2022-12-03T05:10:17.765Z,0
2022-12-03T05:15:17.595Z,0
2022-12-03T05:20:17.758Z,0
2022-12-03T05:25:17.658Z,0
2022-12-03T05:30:17.912Z,0
2022-12-03T05:35:17.803Z,0
2022-12-03T05:40:17.751Z,0
2022-12-03T05:45:17.801Z,0
2022-12-03T05:50:17.667Z,0
2022-12-03T05:55:17.636Z,0
2022-12-03T06:00:17.726Z,0
2022-12-03T06:05:17.709Z,0
2022-12-03T06:10:17.941Z,0
2022-12-03T06:15:17.653Z,0
2022-12-03T06:20:17.931Z,0
2022-12-03T06:25:18.783Z,0
2022-12-03T06:30:18.026Z,0
2022-12-03T06:35:17.807Z,0
2022-12-03T06:40:17.903Z,0
2022-12-03T06:45:17.835Z,0
2022-12-03T06:50:17.885Z,0
2022-12-03T06:55:17.902Z,0
2022-12-03T07:00:17.813Z,0
2022-12-03T07:05:17.867Z,0
2022-12-03T07:10:18.118Z,0
2022-12-03T07:15:18.248Z,0
2022-12-03T07:20:17.957Z,0
2022-12-03T07:25:22.798Z,0
2022-12-03T07:30:17.923Z,0
2022-12-03T07:35:18.014Z,0
2022-12-03T07:40:18.432Z,0
2022-12-03T07:45:18.072Z,0
2022-12-03T07:50:18.119Z,0
2022-12-03T07:55:17.989Z,0
2022-12-03T08:00:18.049Z,0
2022-12-03T08:05:17.957Z,0
2022-12-03T08:10:18.133Z,0
2022-12-03T08:15:16.191Z,0
2022-12-03T08:20:18.127Z,0
2022-12-03T08:25:19.268Z,0
2022-12-03T08:30:18.026Z,0
2022-12-03T08:35:18.077Z,0
2022-12-03T08:40:20.534Z,0
2022-12-03T08:45:18.123Z,0
2022-12-03T08:50:18.186Z,0
2022-12-03T08:55:18.368Z,0
2022-12-03T09:00:18.449Z,0
2022-12-03T09:05:18.127Z,0
2022-12-03T09:10:18.394Z,0
2022-12-03T09:15:18.348Z,0
2022-12-03T09:20:18.174Z,0
2022-12-03T09:25:16.239Z,0
2022-12-03T09:30:16.203Z,0
2022-12-03T09:35:16.561Z,0
2022-12-03T09:40:16.361Z,0
2022-12-03T09:45:16.215Z,0
2022-12-03T09:50:16.476Z,0
2022-12-03T09:55:16.321Z,0
2022-12-03T10:00:16.365Z,0
2022-12-03T10:05:16.282Z,0
2022-12-03T10:10:16.823Z,0
2022-12-03T10:15:16.338Z,0
2022-12-03T10:20:16.558Z,0
2022-12-03T10:25:17.169Z,0
2022-12-03T10:30:16.426Z,0
2022-12-03T10:35:16.413Z,0
2022-12-03T10:40:16.651Z,0
2022-12-03T10:45:16.542Z,0
2022-12-03T10:50:16.531Z,0
2022-12-03T10:55:16.514Z,0
2022-12-03T11:00:16.575Z,0
2022-12-03T11:05:16.458Z,0
2022-12-03T11:10:16.641Z,0
2022-12-03T11:15:16.441Z,0
2022-12-03T11:20:22.244Z,0
2022-12-03T11:25:16.657Z,0
2022-12-03T11:30:16.563Z,0
2022-12-03T11:35:16.470Z,0
2022-12-03T11:40:16.709Z,0
2022-12-03T11:45:16.584Z,0
2022-12-03T11:50:16.631Z,0
2022-12-03T11:55:17.307Z,0
2022-12-03T12:00:16.707Z,0
2022-12-03T12:05:16.621Z,0
2022-12-03T12:10:16.956Z,0
2022-12-03T12:15:16.629Z,4
2022-12-03T12:20:16.717Z,6
2022-12-03T12:25:17.569Z,8
2022-12-03T12:30:17.077Z,11
2022-12-03T12:35:16.669Z,15
2022-12-03T12:40:16.960Z,14
2022-12-03T12:45:16.710Z,17
2022-12-03T12:50:16.801Z,16
2022-12-03T12:55:16.870Z,16
2022-12-03T13:00:16.841Z,19
2022-12-03T13:05:16.922Z,29
2022-12-03T13:10:16.895Z,35
2022-12-03T13:15:16.687Z,32
2022-12-03T13:20:17.086Z,38
2022-12-03T13:25:27.965Z,55
2022-12-03T13:30:16.808Z,77
2022-12-03T13:35:16.753Z,76
2022-12-03T13:40:17.183Z,49
2022-12-03T13:45:16.901Z,56
2022-12-03T13:50:16.955Z,101
2022-12-03T13:55:16.955Z,98
2022-12-03T14:00:16.921Z,72
2022-12-03T14:05:17.160Z,82
2022-12-03T14:10:17.017Z,82
2022-12-03T14:15:17.091Z,73
2022-12-03T14:20:16.991Z,68
2022-12-03T14:25:17.736Z,85
2022-12-03T14:30:17.177Z,78
2022-12-03T14:35:17.026Z,78
2022-12-03T14:40:21.491Z,53
2022-12-03T14:45:17.244Z,38
2022-12-03T14:50:17.064Z,33
2022-12-03T14:55:17.180Z,31
2022-12-03T15:00:17.117Z,40
2022-12-03T15:05:16.969Z,46
2022-12-03T15:10:17.345Z,43
2022-12-03T15:15:17.232Z,33
2022-12-03T15:20:17.317Z,39
2022-12-03T15:25:17.174Z,51
2022-12-03T15:30:17.299Z,54
2022-12-03T15:35:17.103Z,51
2022-12-03T15:40:17.549Z,39
2022-12-03T15:45:17.137Z,37
2022-12-03T15:50:17.194Z,59
2022-12-03T15:55:17.381Z,77
2022-12-03T16:00:17.159Z,86
2022-12-03T16:05:17.238Z,80
2022-12-03T16:10:17.450Z,66
2022-12-03T16:15:20.922Z,48
2022-12-03T16:20:17.300Z,32
2022-12-03T16:25:19.228Z,29
2022-12-03T16:30:17.427Z,32
2022-12-03T16:35:17.415Z,29
2022-12-03T16:40:17.330Z,24
2022-12-03T16:45:17.232Z,30
2022-12-03T16:50:24.329Z,28
2022-12-03T16:55:17.308Z,32
2022-12-03T17:00:17.569Z,35
2022-12-03T17:05:17.295Z,54
2022-12-03T17:10:17.434Z,69
2022-12-03T17:15:17.393Z,66
2022-12-03T17:20:17.663Z,58
2022-12-03T17:25:17.493Z,54
2022-12-03T17:30:17.468Z,40
2022-12-03T17:35:17.887Z,34
2022-12-03T17:40:17.621Z,37
2022-12-03T17:45:17.439Z,46
2022-12-03T17:50:17.685Z,55
2022-12-03T17:55:27.815Z,60
2022-12-03T18:00:17.772Z,53
2022-12-03T18:05:17.503Z,54
2022-12-03T18:10:17.766Z,50
2022-12-03T18:15:17.475Z,48
2022-12-03T18:20:17.626Z,57
2022-12-03T18:25:18.551Z,42
2022-12-03T18:30:17.645Z,41
2022-12-03T18:35:17.741Z,50
2022-12-03T18:40:18.372Z,45
2022-12-03T18:45:17.575Z,38
2022-12-03T18:50:17.639Z,43
2022-12-03T18:55:17.725Z,40
2022-12-03T19:00:17.611Z,30
2022-12-03T19:05:17.582Z,23
2022-12-03T19:10:18.824Z,26
2022-12-03T19:15:17.659Z,33
2022-12-03T19:20:17.725Z,34
2022-12-03T19:25:17.675Z,32
2022-12-03T19:30:17.699Z,26
2022-12-03T19:35:17.830Z,21
2022-12-03T19:40:17.850Z,20
2022-12-03T19:45:17.823Z,17
2022-12-03T19:50:23.027Z,21
2022-12-03T19:55:17.911Z,19
2022-12-03T20:00:17.885Z,18
2022-12-03T20:05:17.728Z,23
2022-12-03T20:10:18.004Z,14
2022-12-03T20:15:17.876Z,7
2022-12-03T20:20:18.278Z,5
2022-12-03T20:25:18.673Z,10
2022-12-03T20:30:17.876Z,14
2022-12-03T20:35:17.809Z,17
2022-12-03T20:40:17.972Z,16
2022-12-03T20:45:17.941Z,10
2022-12-03T20:50:18.003Z,2
2022-12-03T20:55:18.657Z,0
2022-12-03T21:00:18.173Z,0
2022-12-03T21:05:18.440Z,0
2022-12-03T21:10:18.205Z,0
2022-12-03T21:15:17.923Z,0
2022-12-03T21:20:21.205Z,0
2022-12-03T21:25:18.122Z,0
2022-12-03T21:30:18.506Z,0
2022-12-03T21:35:18.040Z,0
2022-12-03T21:40:18.127Z,0
2022-12-03T21:45:17.916Z,0
2022-12-03T21:50:18.096Z,0
2022-12-03T21:55:18.202Z,0
2022-12-03T22:00:18.182Z,0
2022-12-03T22:05:18.416Z,0
2022-12-03T22:10:18.588Z,0
2022-12-03T22:15:19.330Z,0
2022-12-03T22:20:18.624Z,0
2022-12-03T22:25:18.970Z,0
2022-12-03T22:30:18.333Z,0
2022-12-03T22:35:18.318Z,0
2022-12-03T22:40:19.012Z,0
2022-12-03T22:45:16.204Z,0
2022-12-03T22:50:16.190Z,0
2022-12-03T22:55:16.367Z,0
2022-12-03T23:00:16.260Z,0
2022-12-03T23:05:16.369Z,0
2022-12-03T23:10:16.346Z,0
2022-12-03T23:15:16.364Z,0
2022-12-03T23:20:16.342Z,0
2022-12-03T23:25:16.420Z,0
2022-12-03T23:30:16.366Z,0
2022-12-03T23:35:16.289Z,0
2022-12-03T23:40:16.585Z,0
2022-12-03T23:45:16.778Z,0
2022-12-03T23:50:16.511Z,0
2022-12-03T23:55:16.440Z,0
